Time;durP1;ratioP1;P1;durP2;ratioP2;P2;SDS_P1;SDS_P2;PMS_P1;PMS_P2;Temp;Humidity;BMP_temperature;BMP_pressure;BME280_temperature;BME280_humidity;BME280_pressure;Samples;Min_cycle;Max_cycle;Signal;HPM_P1;HPM_P2
2023/03/13 00:01:17;;;;;;;37.33;8.93;;;8.70;99.90;;;;;;7370077;19;20021;-73
2023/03/13 00:03:43;;;;;;;33.28;8.32;;;8.60;99.90;;;;;;7383838;19;20018;-74
2023/03/13 00:06:09;;;;;;;36.85;8.18;;;8.70;99.90;;;;;;7377677;19;20035;-62
2023/03/13 00:08:36;;;;;;;29.50;7.32;;;8.70;99.90;;;;;;7375181;19;20777;-63
2023/03/13 00:11:04;;;;;;;35.50;9.15;;;8.60;99.90;;;;;;7377227;19;20054;-63
2023/03/13 00:13:30;;;;;;;32.78;7.68;;;8.60;99.90;;;;;;7377840;19;20015;-74
2023/03/13 00:16:08;;;;;;;36.42;10.23;;;8.60;99.90;;;;;;7378872;19;20046;-74
2023/03/13 00:18:35;;;;;;;42.30;8.65;;;8.60;99.90;;;;;;7379306;19;20018;-63
2023/03/13 00:21:04;;;;;;;35.10;9.00;;;8.60;99.90;;;;;;7378367;19;20025;-62
2023/03/13 00:23:32;;;;;;;37.30;8.40;;;8.60;99.90;;;;;;7375336;19;20014;-62
2023/03/13 00:26:02;;;;;;;37.33;8.45;;;8.60;99.90;;;;;;7378021;19;20398;-62
2023/03/13 00:28:30;;;;;;;31.95;8.02;;;8.60;99.90;;;;;;7375827;19;20026;-62
2023/03/13 00:31:04;;;;;;;35.50;7.80;;;8.60;99.90;;;;;;7378219;19;20058;-61
2023/03/13 00:33:35;;;;;;;31.85;7.93;;;8.50;99.90;;;;;;7375745;19;20018;-61
2023/03/13 00:36:06;;;;;;;43.13;8.60;;;8.50;99.90;;;;;;7379492;19;20014;-62
2023/03/13 00:38:32;;;;;;;32.90;7.32;;;8.50;99.90;;;;;;7381198;19;20524;-62
2023/03/13 00:41:06;;;;;;;31.58;8.35;;;8.50;99.90;;;;;;7379664;19;20041;-62
2023/03/13 00:43:34;;;;;;;37.40;8.07;;;8.50;99.90;;;;;;7377578;19;20018;-62
2023/03/13 00:46:00;;;;;;;33.55;7.80;;;8.40;99.90;;;;;;7379461;19;20022;-62
2023/03/13 00:48:27;;;;;;;37.47;7.60;;;8.40;99.90;;;;;;7378401;19;20593;-62
2023/03/13 00:50:53;;;;;;;38.40;8.27;;;8.40;99.90;;;;;;7377002;19;20364;-62
2023/03/13 00:53:19;;;;;;;34.53;7.68;;;8.50;99.90;;;;;;7372256;19;20022;-62
2023/03/13 00:56:04;;;;;;;41.50;8.07;;;8.40;99.90;;;;;;7371057;19;20362;-62
2023/03/13 00:58:33;;;;;;;29.60;7.90;;;8.50;99.90;;;;;;7378124;19;20692;-62
2023/03/13 01:01:28;;;;;;;35.40;8.40;;;8.50;99.90;;;;;;7376655;19;20018;-62
2023/03/13 01:03:57;;;;;;;33.10;8.25;;;8.50;99.90;;;;;;7374962;19;20020;-62
2023/03/13 01:06:27;;;;;;;37.65;8.73;;;8.50;99.90;;;;;;7376846;19;20468;-62
2023/03/13 01:08:58;;;;;;;30.48;7.55;;;8.50;99.90;;;;;;7375280;19;20428;-72
2023/03/13 01:11:27;;;;;;;40.67;8.38;;;8.50;99.90;;;;;;7378643;19;20041;-73
2023/03/13 01:14:07;;;;;;;37.88;7.88;;;8.50;99.90;;;;;;7374237;19;20022;-62
2023/03/13 01:16:35;;;;;;;37.20;8.52;;;8.50;99.90;;;;;;7379122;19;20019;-62
2023/03/13 01:19:05;;;;;;;34.00;7.80;;;8.50;99.90;;;;;;7376932;19;20406;-63
2023/03/13 01:21:31;;;;;;;29.45;7.57;;;8.50;99.90;;;;;;7378727;19;20109;-62
2023/03/13 01:23:57;;;;;;;37.67;7.95;;;8.50;99.90;;;;;;7375452;19;20027;-62
2023/03/13 01:26:27;;;;;;;31.13;7.82;;;8.50;99.90;;;;;;7379107;19;20018;-72
2023/03/13 01:28:54;;;;;;;36.13;7.90;;;8.50;99.90;;;;;;7375681;19;20530;-72
2023/03/13 01:31:27;;;;;;;33.80;7.10;;;8.50;99.90;;;;;;7379681;19;20046;-72
2023/03/13 01:33:58;;;;;;;31.45;7.35;;;8.60;99.90;;;;;;7371328;19;20486;-73
2023/03/13 01:36:26;;;;;;;;;;;8.60;99.90;;;;;;7375574;19;20745;-75
2023/03/13 01:46:42;;;;;;;26.00;7.72;;;8.60;99.90;;;;;;7373972;19;20010;-73
2023/03/13 01:49:24;;;;;;;32.83;8.02;;;8.60;99.90;;;;;;7380088;19;20085;-73
2023/03/13 01:52:09;;;;;;;33.92;8.68;;;8.60;99.90;;;;;;7380933;19;20030;-73
2023/03/13 01:54:49;;;;;;;31.75;8.55;;;8.70;99.90;;;;;;7378827;19;20021;-74
2023/03/13 01:57:20;;;;;;;30.77;6.88;;;8.70;99.90;;;;;;7376498;19;20027;-62
2023/03/13 01:59:51;;;;;;;31.15;7.70;;;8.70;99.90;;;;;;7378515;19;20125;-62
2023/03/13 02:02:19;;;;;;;27.30;8.13;;;8.70;99.90;;;;;;7381265;19;20019;-74
2023/03/13 02:04:49;;;;;;;30.27;8.68;;;8.70;99.90;;;;;;7378711;19;20018;-73
2023/03/13 02:07:20;;;;;;;35.47;9.00;;;8.70;99.90;;;;;;7379206;19;20056;-62
2023/03/13 02:09:51;;;;;;;29.92;7.60;;;8.70;99.90;;;;;;7377253;19;20021;-61
2023/03/13 02:12:31;;;;;;;29.45;7.97;;;8.70;99.90;;;;;;7380049;19;20504;-62
2023/03/13 02:15:01;;;;;;;38.17;9.40;;;8.70;99.90;;;;;;7373296;19;20022;-70
2023/03/13 02:17:28;;;;;;;22.95;8.23;;;8.70;99.90;;;;;;7377843;19;20023;-71
2023/03/13 02:19:54;;;;;;;36.05;9.43;;;8.70;99.90;;;;;;7378520;19;20033;-70
2023/03/13 02:22:30;;;;;;;29.75;8.15;;;8.70;99.90;;;;;;7381362;19;20846;-69
2023/03/13 02:25:02;;;;;;;27.73;8.50;;;8.70;99.90;;;;;;7379952;19;20029;-68
2023/03/13 02:27:28;;;;;;;;;;;8.70;99.90;;;;;;7382336;19;20492;-68
2023/03/13 02:29:56;;;;;;;25.05;8.80;;;8.70;99.90;;;;;;7377529;19;20329;-68
2023/03/13 02:32:23;;;;;;;26.73;9.05;;;8.70;99.90;;;;;;7234907;19;2829039;-68
2023/03/13 02:34:53;;;;;;;29.17;9.50;;;8.70;99.90;;;;;;7377934;19;20026;-68
2023/03/13 02:37:21;;;;;;;22.38;7.50;;;8.70;99.90;;;;;;7378306;19;20022;-68
2023/03/13 02:39:50;;;;;;;30.90;8.05;;;8.70;99.90;;;;;;7374865;19;20014;-68
2023/03/13 02:42:19;;;;;;;26.25;7.90;;;8.70;99.90;;;;;;7383188;19;20021;-68
2023/03/13 02:44:46;;;;;;;18.95;7.05;;;8.80;99.90;;;;;;7380801;19;20510;-67
2023/03/13 02:47:21;;;;;;;15.80;6.57;;;8.80;99.90;;;;;;7380589;19;20014;-67
2023/03/13 02:49:49;;;;;;;19.27;7.25;;;8.80;99.90;;;;;;7380657;19;20015;-62
2023/03/13 02:52:27;;;;;;;20.67;7.43;;;8.80;99.90;;;;;;7378864;19;20102;-65
2023/03/13 02:55:09;;;;;;;20.50;7.22;;;8.90;99.90;;;;;;7377070;19;20022;-62
2023/03/13 02:57:35;;;;;;;17.63;6.78;;;8.90;99.90;;;;;;7379983;19;20014;-62
2023/03/13 03:00:06;;;;;;;20.38;7.70;;;8.90;99.90;;;;;;7380170;19;20022;-62
2023/03/13 03:02:33;;;;;;;18.08;7.05;;;8.90;99.90;;;;;;7381188;19;20028;-67
2023/03/13 03:05:00;;;;;;;15.23;6.65;;;9.00;99.90;;;;;;7377623;19;20018;-68
2023/03/13 03:07:26;;;;;;;17.13;6.65;;;9.00;99.90;;;;;;7380129;19;20022;-67
2023/03/13 03:09:52;;;;;;;13.50;6.38;;;9.00;99.90;;;;;;7379717;19;20043;-66
2023/03/13 03:12:20;;;;;;;13.20;6.53;;;9.00;99.90;;;;;;7378716;19;20473;-67
2023/03/13 03:14:47;;;;;;;13.68;6.68;;;9.00;99.90;;;;;;7378262;19;20014;-67
2023/03/13 03:17:13;;;;;;;15.38;6.35;;;9.10;99.90;;;;;;7380224;19;20033;-66
2023/03/13 03:19:40;;;;;;;14.52;6.25;;;9.10;99.90;;;;;;7378115;19;20006;-66
2023/03/13 03:22:07;;;;;;;13.75;6.35;;;9.10;99.90;;;;;;7379783;19;20015;-67
2023/03/13 03:24:33;;;;;;;15.38;7.10;;;9.10;99.90;;;;;;7381204;19;20027;-66
2023/03/13 03:27:00;;;;;;;11.77;7.00;;;9.10;99.90;;;;;;7375333;19;20063;-60
2023/03/13 03:29:31;;;;;;;;;;;9.20;99.90;;;;;;7380265;19;20612;-61
2023/03/13 03:31:58;;;;;;;12.98;6.80;;;9.20;99.90;;;;;;7377976;19;19923;-61
2023/03/13 03:34:25;;;;;;;14.75;6.47;;;9.30;99.90;;;;;;7379540;19;20022;-60
2023/03/13 03:36:52;;;;;;;18.63;7.93;;;9.30;99.90;;;;;;7379178;19;20497;-60
2023/03/13 03:39:18;;;;;;;14.52;7.38;;;9.30;99.90;;;;;;7380465;19;20018;-60
2023/03/13 03:41:45;;;;;;;16.15;8.48;;;9.40;99.90;;;;;;7374686;19;20399;-60
2023/03/13 03:44:11;;;;;;;16.75;8.23;;;9.40;99.90;;;;;;7374985;19;20381;-61
2023/03/13 03:46:58;;;;;;;14.98;8.40;;;9.40;99.90;;;;;;7372390;19;20014;-60
2023/03/13 03:49:26;;;;;;;14.98;8.95;;;9.50;99.90;;;;;;7379143;19;20014;-60
2023/03/13 03:51:52;;;;;;;16.90;8.95;;;9.50;99.90;;;;;;7378896;19;20019;-61
2023/03/13 03:54:28;;;;;;;14.05;8.77;;;9.40;99.90;;;;;;7377085;19;20019;-61
2023/03/13 03:56:54;;;;;;;14.50;8.77;;;9.50;99.90;;;;;;7373902;19;20018;-60
2023/03/13 03:59:21;;;;;;;19.42;8.90;;;9.50;99.90;;;;;;7379078;19;20373;-60
2023/03/13 04:01:54;;;;;;;14.68;8.32;;;9.50;99.90;;;;;;7379716;19;20023;-61
2023/03/13 04:04:23;;;;;;;14.00;9.10;;;9.60;99.90;;;;;;7376838;19;20022;-60
2023/03/13 04:06:56;;;;;;;15.05;9.30;;;9.70;99.90;;;;;;7377975;19;20015;-60
2023/03/13 04:09:22;;;;;;;18.20;9.18;;;9.70;99.90;;;;;;7375394;19;20059;-60
2023/03/13 04:11:48;;;;;;;14.23;9.02;;;9.80;99.90;;;;;;7376435;19;20023;-60
2023/03/13 04:14:15;;;;;;;18.10;9.52;;;9.70;99.90;;;;;;7376863;19;20011;-66
2023/03/13 04:16:41;;;;;;;15.65;8.73;;;9.80;99.90;;;;;;7376691;19;20025;-67
2023/03/13 04:19:08;;;;;;;11.95;8.88;;;9.80;99.90;;;;;;7377335;19;20380;-61
2023/03/13 04:21:35;;;;;;;11.18;8.73;;;9.90;99.90;;;;;;7378792;19;20015;-67
2023/03/13 04:24:09;;;;;;;11.70;8.45;;;9.90;99.90;;;;;;7377991;19;20025;-66
2023/03/13 04:26:38;;;;;;;13.73;8.38;;;10.00;99.90;;;;;;7377089;19;20367;-66
2023/03/13 04:29:05;;;;;;;11.65;8.73;;;10.00;99.90;;;;;;7375510;19;20474;-61
2023/03/13 04:31:54;;;;;;;14.80;8.63;;;10.20;99.90;;;;;;7374627;19;20031;-60
2023/03/13 04:34:26;;;;;;;10.57;8.02;;;10.20;99.90;;;;;;7378403;19;20056;-67
2023/03/13 04:37:13;;;;;;;14.27;8.93;;;10.20;99.90;;;;;;7375699;19;20019;-67
2023/03/13 04:40:01;;;;;;;10.80;8.55;;;10.30;99.90;;;;;;7377287;19;20018;-61
2023/03/13 04:42:40;;;;;;;13.43;8.88;;;10.40;99.90;;;;;;7378712;19;20051;-60
2023/03/13 04:45:26;;;;;;;12.50;8.77;;;10.40;99.90;;;;;;7376892;19;20039;-61
2023/03/13 04:48:12;;;;;;;12.10;9.00;;;10.50;99.90;;;;;;7377764;19;20035;-60
2023/03/13 04:50:55;;;;;;;12.88;10.10;;;10.50;99.90;;;;;;7376450;19;20023;-61
2023/03/13 04:53:37;;;;;;;17.67;10.02;;;10.50;99.90;;;;;;7377361;19;20103;-60
2023/03/13 04:56:29;;;;;;;14.57;10.32;;;10.60;99.90;;;;;;7375981;19;20010;-61
2023/03/13 04:59:31;;;;;;;14.77;11.15;;;10.50;99.90;;;;;;7375428;19;20026;-60
2023/03/13 05:02:04;;;;;;;17.08;11.15;;;10.50;99.90;;;;;;7375802;19;20493;-61
2023/03/13 05:04:41;;;;;;;15.02;10.30;;;10.60;99.90;;;;;;7376803;19;20014;-60
2023/03/13 05:07:27;;;;;;;15.65;10.88;;;10.70;99.90;;;;;;7378108;19;20073;-61
2023/03/13 05:10:06;;;;;;;13.38;10.63;;;10.80;99.90;;;;;;7375503;19;20033;-60
2023/03/13 05:13:05;;;;;;;14.18;9.98;;;10.70;99.90;;;;;;7373586;19;20022;-60
2023/03/13 05:15:54;;;;;;;15.38;10.80;;;10.80;99.90;;;;;;7374539;19;20045;-61
2023/03/13 05:18:34;;;;;;;12.90;9.98;;;10.80;99.90;;;;;;7377375;19;20022;-61
2023/03/13 05:21:24;;;;;;;14.23;10.70;;;10.80;99.90;;;;;;7375096;19;20028;-60
2023/03/13 05:24:09;;;;;;;12.40;10.50;;;10.90;99.90;;;;;;7377666;19;20022;-61
2023/03/13 05:27:01;;;;;;;17.27;10.27;;;10.90;99.90;;;;;;7368367;19;20022;-70
2023/03/13 05:29:47;;;;;;;11.48;9.93;;;11.00;99.90;;;;;;7369136;19;20374;-61
2023/03/13 05:32:19;;;;;;;13.13;10.35;;;11.00;99.90;;;;;;7373617;19;20860;-70
2023/03/13 05:35:04;;;;;;;12.95;10.27;;;11.10;99.90;;;;;;7373550;19;20809;-61
2023/03/13 05:38:06;;;;;;;13.52;10.05;;;11.10;99.90;;;;;;7372016;19;20015;-61
2023/03/13 05:40:41;;;;;;;14.23;10.43;;;11.10;99.90;;;;;;7372299;19;20019;-61
2023/03/13 05:43:34;;;;;;;13.80;9.75;;;11.20;99.90;;;;;;7370627;19;20038;-61
2023/03/13 05:46:26;;;;;;;14.75;10.93;;;11.30;99.90;;;;;;7374461;19;20015;-60
2023/03/13 05:49:13;;;;;;;12.98;10.23;;;11.20;99.90;;;;;;7372381;19;20019;-60
2023/03/13 05:51:53;;;;;;;13.27;10.10;;;11.30;99.90;;;;;;7370244;19;20476;-60
2023/03/13 05:54:40;;;;;;;11.70;9.88;;;11.40;99.90;;;;;;7373477;19;20517;-60
2023/03/13 05:57:28;;;;;;;12.55;9.88;;;11.30;99.90;;;;;;7367789;19;20022;-60
2023/03/13 06:00:21;;;;;;;14.10;8.75;;;11.30;99.90;;;;;;7370963;19;20773;-60
2023/03/13 06:03:07;;;;;;;12.15;8.95;;;11.50;99.90;;;;;;7372455;19;20017;-60
2023/03/13 06:05:38;;;;;;;14.48;9.60;;;11.50;99.90;;;;;;7367075;19;20441;-68
2023/03/13 06:08:12;;;;;;;14.95;8.02;;;11.40;99.90;;;;;;7375215;19;20104;-60
2023/03/13 06:10:38;;;;;;;12.57;8.43;;;11.50;99.90;;;;;;7371870;19;20501;-60
2023/03/13 06:13:04;;;;;;;11.13;9.05;;;11.40;99.90;;;;;;7373993;19;20557;-60
2023/03/13 06:15:34;;;;;;;12.25;9.27;;;11.60;99.90;;;;;;7369496;19;20026;-60
2023/03/13 06:18:30;;;;;;;12.35;8.00;;;11.60;99.90;;;;;;7366858;19;20029;-60
2023/03/13 06:20:59;;;;;;;10.27;8.23;;;11.50;99.90;;;;;;7360833;19;20015;-60
2023/03/13 06:23:25;;;;;;;11.48;8.63;;;11.60;99.90;;;;;;7368429;19;20549;-69
2023/03/13 06:25:52;;;;;;;13.45;8.00;;;11.60;99.90;;;;;;7364511;19;20797;-69
2023/03/13 06:28:18;;;;;;;11.35;7.93;;;11.70;99.90;;;;;;7364034;19;20025;-61
2023/03/13 06:30:45;;;;;;;14.95;9.38;;;11.70;99.90;;;;;;7360786;19;21104;-60
2023/03/13 06:33:11;;;;;;;15.82;9.05;;;11.60;99.90;;;;;;7366114;19;20363;-60
2023/03/13 06:35:42;;;;;;;13.60;8.90;;;11.60;99.90;;;;;;7371977;19;20022;-61
2023/03/13 06:38:09;;;;;;;14.18;8.35;;;11.60;99.90;;;;;;7374402;19;20024;-60
2023/03/13 06:40:35;;;;;;;16.45;8.30;;;11.60;99.90;;;;;;7373218;19;20019;-61
2023/03/13 06:43:02;;;;;;;14.68;8.43;;;11.60;99.90;;;;;;7374382;19;20019;-60
2023/03/13 06:45:28;;;;;;;13.27;7.13;;;11.70;99.90;;;;;;7370307;19;20037;-61
2023/03/13 06:47:54;;;;;;;16.25;7.35;;;11.60;99.90;;;;;;7372435;19;20118;-61
2023/03/13 06:50:22;;;;;;;13.32;6.80;;;11.60;99.90;;;;;;7373387;19;20489;-60
2023/03/13 06:52:49;;;;;;;11.82;6.43;;;11.60;99.90;;;;;;7373417;19;20032;-61
2023/03/13 06:55:15;;;;;;;13.30;6.53;;;11.50;99.90;;;;;;7374441;19;20387;-61
2023/03/13 06:57:42;;;;;;;13.15;6.70;;;11.60;99.90;;;;;;7376036;19;20010;-61
2023/03/13 07:00:11;;;;;;;11.68;6.22;;;11.60;99.90;;;;;;7373433;19;20022;-70
2023/03/13 07:02:37;;;;;;;12.70;6.18;;;11.60;99.90;;;;;;7371209;19;20475;-70
2023/03/13 07:05:04;;;;;;;17.55;6.65;;;11.60;99.90;;;;;;7370359;19;20022;-70
2023/03/13 07:07:32;;;;;;;10.38;6.18;;;11.60;99.90;;;;;;7373480;19;20082;-61
2023/03/13 07:09:59;;;;;;;15.68;5.85;;;11.60;99.90;;;;;;7373705;19;20049;-61
2023/03/13 07:12:26;;;;;;;14.88;6.35;;;11.60;99.90;;;;;;7371708;19;20089;-62
2023/03/13 07:14:52;;;;;;;14.52;6.10;;;11.70;99.90;;;;;;7367972;19;20015;-61
2023/03/13 07:17:18;;;;;;;17.42;6.07;;;11.60;99.90;;;;;;7369854;19;20018;-60
2023/03/13 07:19:45;;;;;;;18.55;5.35;;;11.60;99.90;;;;;;7372865;19;20034;-60
2023/03/13 07:22:11;;;;;;;13.13;6.30;;;11.60;99.90;;;;;;7369006;19;20026;-60
2023/03/13 07:24:37;;;;;;;11.60;5.47;;;11.60;99.90;;;;;;7375923;19;20023;-70
2023/03/13 07:27:04;;;;;;;13.15;5.68;;;11.60;99.90;;;;;;7372270;19;20035;-71
2023/03/13 07:29:30;;;;;;;13.00;5.43;;;11.60;99.90;;;;;;7371509;19;20038;-71
2023/03/13 07:31:56;;;;;;;12.48;5.15;;;11.60;99.90;;;;;;7368882;19;20876;-71
2023/03/13 07:34:22;;;;;;;15.75;5.47;;;11.60;99.90;;;;;;7368138;19;20572;-71
2023/03/13 07:36:49;;;;;;;10.35;6.18;;;11.70;99.90;;;;;;7374880;19;20880;-72
2023/03/13 07:39:15;;;;;;;14.23;5.15;;;11.70;99.90;;;;;;7372610;19;20102;-61
2023/03/13 07:41:41;;;;;;;10.35;4.72;;;11.80;99.90;;;;;;7373730;19;20380;-61
2023/03/13 07:44:07;;;;;;;9.57;4.70;;;11.80;99.90;;;;;;7365460;19;20611;-61
2023/03/13 07:46:34;;;;;;;11.35;4.45;;;11.80;99.90;;;;;;7370002;19;20073;-61
2023/03/13 07:49:00;;;;;;;11.07;5.22;;;11.90;99.90;;;;;;7373513;19;20019;-61
2023/03/13 07:51:27;;;;;;;11.60;4.82;;;12.00;99.90;;;;;;7374872;19;20056;-61
2023/03/13 07:53:53;;;;;;;10.40;4.22;;;12.00;99.90;;;;;;7369258;19;20030;-62
2023/03/13 07:56:22;;;;;;;8.13;4.18;;;12.00;99.90;;;;;;7372587;19;20954;-61
2023/03/13 07:58:49;;;;;;;9.30;4.55;;;12.10;99.90;;;;;;7370365;19;20056;-62
2023/03/13 08:01:18;;;;;;;10.23;4.90;;;12.00;99.90;;;;;;7371564;19;20043;-62
2023/03/13 08:03:45;;;;;;;12.40;5.10;;;12.00;99.90;;;;;;7374060;19;20053;-68
2023/03/13 08:06:15;;;;;;;12.40;5.10;;;12.00;99.90;;;;;;7370296;19;20026;-69
2023/03/13 08:08:42;;;;;;;9.32;4.95;;;11.90;99.90;;;;;;7375594;19;20027;-61
2023/03/13 08:11:14;;;;;;;10.38;5.22;;;11.90;99.90;;;;;;7370252;19;20010;-61
2023/03/13 08:13:41;;;;;;;12.45;4.60;;;11.80;99.90;;;;;;7370941;19;20014;-60
2023/03/13 08:16:11;;;;;;;8.57;5.45;;;11.80;99.90;;;;;;7367982;19;20022;-60
2023/03/13 08:18:39;;;;;;;8.30;5.60;;;11.80;99.90;;;;;;7373641;19;20019;-60
2023/03/13 08:21:08;;;;;;;9.65;5.57;;;11.70;99.90;;;;;;7371368;19;20029;-61
2023/03/13 08:23:35;;;;;;;9.65;5.18;;;11.70;99.90;;;;;;7373310;19;20018;-61
2023/03/13 08:26:11;;;;;;;10.32;5.85;;;11.70;99.90;;;;;;7374682;19;20041;-61
2023/03/13 08:28:39;;;;;;;8.55;5.28;;;11.70;99.90;;;;;;7371205;19;20019;-62
2023/03/13 08:31:20;;;;;;;9.73;5.38;;;11.80;99.90;;;;;;7368770;19;20018;-61
2023/03/13 08:33:46;;;;;;;11.60;5.18;;;11.80;99.90;;;;;;7368390;19;20015;-61
2023/03/13 08:36:19;;;;;;;8.95;4.90;;;11.80;99.90;;;;;;7369248;19;20025;-61
2023/03/13 08:38:46;;;;;;;11.90;5.13;;;11.80;99.90;;;;;;7369755;19;20103;-69
2023/03/13 08:41:16;;;;;;;9.77;4.70;;;11.80;99.90;;;;;;7369954;19;20025;-69
2023/03/13 08:43:43;;;;;;;8.57;4.53;;;11.80;99.90;;;;;;7366000;19;20082;-69
2023/03/13 08:46:09;;;;;;;9.82;5.50;;;11.80;99.90;;;;;;7368741;19;20734;-69
2023/03/13 08:48:36;;;;;;;8.48;4.40;;;11.80;99.90;;;;;;7372205;19;20049;-69
2023/03/13 08:51:14;;;;;;;8.88;4.75;;;11.80;99.90;;;;;;7373963;19;20037;-69
2023/03/13 08:53:42;;;;;;;8.80;4.32;;;11.90;99.90;;;;;;7368629;19;20090;-70
2023/03/13 08:56:19;;;;;;;8.70;4.15;;;11.80;99.90;;;;;;7366958;19;20018;-70
2023/03/13 08:58:54;;;;;;;10.88;4.43;;;11.90;99.90;;;;;;7374865;19;20018;-70
2023/03/13 09:01:23;;;;;;;7.50;4.15;;;12.10;99.90;;;;;;7374896;19;20022;-70
2023/03/13 09:03:50;;;;;;;8.65;4.10;;;12.40;99.90;;;;;;7369576;19;20090;-72
2023/03/13 09:06:16;;;;;;;7.20;4.10;;;12.60;99.90;;;;;;7368799;19;20084;-63
2023/03/13 09:08:43;;;;;;;9.50;3.88;;;12.60;99.90;;;;;;7372742;19;20026;-62
2023/03/13 09:11:13;;;;;;;6.88;3.35;;;12.60;99.90;;;;;;7367754;19;20022;-62
2023/03/13 09:13:49;;;;;;;7.32;3.30;;;12.60;99.90;;;;;;7369773;19;20022;-63
2023/03/13 09:16:24;;;;;;;3.70;2.58;;;12.50;99.90;;;;;;7372116;19;20502;-63
2023/03/13 09:18:51;;;;;;;5.72;3.53;;;12.50;99.90;;;;;;7370108;19;20042;-62
2023/03/13 09:21:20;;;;;;;9.30;3.70;;;12.50;99.90;;;;;;7369400;19;20025;-63
2023/03/13 09:23:46;;;;;;;5.88;2.95;;;12.40;99.90;;;;;;7372149;19;20041;-63
2023/03/13 09:26:13;;;;;;;5.93;3.03;;;12.40;99.90;;;;;;7372123;19;20010;-63
2023/03/13 09:28:42;;;;;;;10.68;3.58;;;12.40;99.90;;;;;;7374613;19;20015;-62
2023/03/13 09:31:11;;;;;;;10.30;4.10;;;12.40;99.90;;;;;;7369565;19;20049;-63
2023/03/13 09:33:38;;;;;;;11.73;4.47;;;12.40;99.90;;;;;;7367872;19;20062;-62
2023/03/13 09:36:05;;;;;;;8.75;3.70;;;12.40;99.90;;;;;;7370087;19;20027;-62
2023/03/13 09:38:33;;;;;;;11.32;4.18;;;12.40;99.90;;;;;;7368427;19;20018;-62
2023/03/13 09:41:24;;;;;;;7.70;3.53;;;12.40;99.90;;;;;;7368603;19;20020;-63
2023/03/13 09:44:02;;;;;;;11.07;3.63;;;12.50;99.90;;;;;;7368979;19;20038;-63
2023/03/13 09:46:56;;;;;;;8.27;2.90;;;12.50;99.90;;;;;;7363964;19;20026;-63
2023/03/13 09:49:33;;;;;;;7.25;3.13;;;12.60;99.90;;;;;;7367469;19;20026;-63
2023/03/13 09:52:03;;;;;;;5.82;3.22;;;12.60;99.90;;;;;;7367705;19;20023;-64
2023/03/13 09:54:42;;;;;;;7.85;2.53;;;12.70;99.90;;;;;;7361985;19;21028;-64
2023/03/13 09:57:34;;;;;;;8.60;2.33;;;12.80;99.90;;;;;;7369305;19;20018;-63
2023/03/13 10:00:12;;;;;;;7.30;2.53;;;12.80;99.90;;;;;;7369125;19;20025;-63
2023/03/13 10:02:42;;;;;;;8.43;2.83;;;12.90;99.90;;;;;;7367108;19;20592;-69
2023/03/13 10:05:26;;;;;;;9.38;2.70;;;13.10;99.90;;;;;;7371052;19;20017;-67
2023/03/13 10:08:13;;;;;;;6.38;1.75;;;13.80;99.90;;;;;;7368247;19;20507;-69
2023/03/13 10:11:02;;;;;;;17.65;8.20;;;13.90;99.90;;;;;;7366082;19;20022;-72
2023/03/13 10:13:59;;;;;;;7.13;2.35;;;14.00;99.90;;;;;;7375711;19;20014;-69
2023/03/13 10:16:50;;;;;;;11.00;3.05;;;13.80;99.90;;;;;;7373293;19;20122;-69
2023/03/13 10:19:30;;;;;;;6.28;2.42;;;13.80;99.90;;;;;;7371558;19;20502;-71
2023/03/13 10:21:57;;;;;;;11.60;3.10;;;13.80;99.90;;;;;;7377025;19;20022;-72
2023/03/13 10:24:26;;;;;;;8.50;2.30;;;13.80;99.90;;;;;;7374925;19;20375;-71
2023/03/13 10:26:58;;;;;;;10.20;2.90;;;13.70;99.90;;;;;;7379813;19;20026;-70
2023/03/13 10:29:27;;;;;;;9.23;2.30;;;13.80;99.90;;;;;;7381789;19;20098;-71
2023/03/13 10:32:00;;;;;;;9.18;2.35;;;13.90;99.90;;;;;;7380992;19;20026;-70
2023/03/13 10:34:43;;;;;;;6.82;2.30;;;14.00;99.90;;;;;;7371730;19;20056;-72
2023/03/13 10:37:13;;;;;;;9.15;2.72;;;14.00;99.90;;;;;;7381736;19;20033;-73
2023/03/13 10:39:39;;;;;;;7.10;2.42;;;14.00;99.90;;;;;;7381922;19;20019;-71
2023/03/13 10:42:17;;;;;;;15.68;3.88;;;14.00;99.90;;;;;;7375013;19;20510;-71
2023/03/13 10:44:47;;;;;;;8.10;2.10;;;14.00;99.90;;;;;;7371826;19;20018;-72
2023/03/13 10:47:14;;;;;;;9.95;2.72;;;13.90;99.90;;;;;;7374011;19;20026;-72
2023/03/13 10:49:54;;;;;;;11.90;2.85;;;13.90;99.90;;;;;;7377270;19;20018;-71
2023/03/13 10:52:31;;;;;;;6.53;2.33;;;13.90;99.90;;;;;;7377112;19;20465;-71
2023/03/13 10:55:04;;;;;;;10.35;2.20;;;14.00;99.90;;;;;;7379365;19;20024;-71
2023/03/13 10:57:33;;;;;;;10.48;2.53;;;14.00;99.90;;;;;;7374300;19;20352;-72
2023/03/13 11:00:06;;;;;;;10.52;3.13;;;14.10;99.90;;;;;;7377635;19;20030;-72
2023/03/13 11:02:37;;;;;;;10.52;2.85;;;14.20;99.90;;;;;;7376404;19;20026;-71
2023/03/13 11:05:22;;;;;;;14.43;3.50;;;14.30;99.90;;;;;;7375592;19;20018;-73
2023/03/13 11:07:49;;;;;;;8.00;2.42;;;14.60;99.90;;;;;;7378534;19;20434;-72
2023/03/13 11:10:21;;;;;;;7.18;2.25;;;15.00;99.90;;;;;;7375543;19;20413;-72
2023/03/13 11:13:01;;;;;;;7.93;2.45;;;14.90;99.90;;;;;;7373194;19;20033;-71
2023/03/13 11:15:35;;;;;;;6.57;2.28;;;14.90;99.90;;;;;;7376525;19;20062;-73
2023/03/13 11:18:25;;;;;;;7.72;2.40;;;15.20;99.90;;;;;;7376409;19;21557;-72
2023/03/13 11:20:52;;;;;;;9.20;2.30;;;15.20;99.90;;;;;;7375016;19;20018;-71
2023/03/13 11:23:26;;;;;;;9.27;2.30;;;15.20;99.90;;;;;;7373294;19;20371;-72
2023/03/13 11:26:11;;;;;;;7.03;2.30;;;15.60;99.90;;;;;;7371724;19;20363;-72
2023/03/13 11:29:01;;;;;;;5.78;2.05;;;16.00;99.90;;;;;;7380207;19;20742;-72
2023/03/13 11:31:38;;;;;;;7.15;1.30;;;16.50;99.90;;;;;;7377563;19;20469;-72
2023/03/13 11:34:07;;;;;;;7.20;1.95;;;16.60;99.90;;;;;;7373059;19;20043;-72
2023/03/13 11:37:01;;;;;;;8.63;1.75;;;16.40;99.90;;;;;;7376980;19;20042;-72
2023/03/13 11:39:46;;;;;;;3.97;1.55;;;16.20;99.90;;;;;;7372407;19;20011;-64
2023/03/13 11:42:43;;;;;;;3.97;1.23;;;16.20;99.90;;;;;;7375169;19;20018;-64
2023/03/13 11:45:19;;;;;;;6.50;1.80;;;16.20;99.90;;;;;;7374066;19;20018;-64
2023/03/13 11:47:51;;;;;;;5.03;1.65;;;16.10;99.90;;;;;;7376592;19;20654;-64
2023/03/13 11:50:30;;;;;;;6.80;1.73;;;16.30;99.90;;;;;;7376345;19;20318;-63
2023/03/13 11:52:59;;;;;;;7.82;2.13;;;17.00;99.90;;;;;;7373079;19;20495;-64
2023/03/13 11:56:08;;;;;;;5.40;1.67;;;17.50;99.90;;;;;;7371061;19;20063;-64
2023/03/13 11:58:35;;;;;;;5.15;1.42;;;17.40;99.90;;;;;;7370886;19;20501;-64
2023/03/13 12:01:25;;;;;;;6.22;1.70;;;17.60;99.90;;;;;;7370418;19;20014;-64
2023/03/13 12:04:00;;;;;;;6.43;1.73;;;17.70;99.90;;;;;;7374095;19;20042;-65
2023/03/13 12:06:33;;;;;;;7.18;1.95;;;17.20;99.90;;;;;;7372692;19;20014;-65
2023/03/13 12:09:17;;;;;;;5.13;1.30;;;17.50;99.90;;;;;;7376562;19;20029;-65
2023/03/13 12:12:03;;;;;;;10.13;2.40;;;17.40;99.90;;;;;;7376094;19;20104;-64
2023/03/13 12:14:51;;;;;;;8.00;2.00;;;17.10;99.90;;;;;;7371864;19;20841;-64
2023/03/13 12:17:34;;;;;;;7.43;1.92;;;16.70;99.90;;;;;;7375474;19;20106;-65
2023/03/13 12:20:18;;;;;;;5.75;1.85;;;17.00;99.90;;;;;;7377801;19;20115;-65
2023/03/13 12:22:47;;;;;;;5.70;1.92;;;17.00;99.90;;;;;;7376400;19;20520;-64
2023/03/13 12:25:54;;;;;;;6.55;1.52;;;16.90;99.90;;;;;;7373731;19;20021;-64
2023/03/13 12:28:29;;;;;;;8.45;1.83;;;16.60;99.90;;;;;;7369549;19;20518;-64
2023/03/13 12:31:18;;;;;;;6.93;1.58;;;16.60;99.90;;;;;;7371192;19;20883;-64
2023/03/13 12:33:56;;;;;;;4.47;1.63;;;16.60;99.90;;;;;;7370289;19;20026;-65
2023/03/13 12:36:44;;;;;;;7.35;2.05;;;16.80;99.90;;;;;;7373060;19;20029;-73
2023/03/13 12:39:33;;;;;;;10.07;2.10;;;17.40;99.90;;;;;;7375943;19;20018;-72
2023/03/13 12:42:09;;;;;;;7.03;1.80;;;17.00;99.90;;;;;;7375001;19;21856;-73
2023/03/13 12:44:38;;;;;;;8.50;2.45;;;17.20;99.90;;;;;;7376202;19;20018;-72
2023/03/13 12:47:16;;;;;;;6.90;1.63;;;17.40;99.90;;;;;;7375931;19;20019;-73
2023/03/13 12:50:00;;;;;;;7.35;1.80;;;17.10;99.90;;;;;;7375700;19;20022;-74
2023/03/13 12:52:38;;;;;;;6.93;2.08;;;16.70;99.90;;;;;;7375724;19;20010;-74
2023/03/13 12:55:25;;;;;;;4.75;2.05;;;16.80;99.90;;;;;;7373098;19;20018;-74
2023/03/13 12:58:00;;;;;;;7.63;1.60;;;16.90;99.90;;;;;;7375623;19;20011;-75
2023/03/13 13:00:30;;;;;;;5.95;1.63;;;16.50;99.90;;;;;;7375668;19;20744;-74
2023/03/13 13:03:25;;;;;;;6.78;1.85;;;16.20;99.90;;;;;;7374729;19;20042;-75
2023/03/13 13:06:01;;;;;;;8.07;2.00;;;16.00;99.90;;;;;;7371970;19;20477;-74
2023/03/13 13:08:32;;;;;;;11.15;2.25;;;16.40;99.90;;;;;;7376356;19;20360;-75
2023/03/13 13:11:17;;;;;;;;;;;16.70;99.90;;;;;;7373665;19;20600;-74
2023/03/13 13:13:43;;;;;;;8.60;2.78;;;17.10;99.90;;;;;;7372207;19;19922;-74
2023/03/13 13:16:18;;;;;;;9.70;2.53;;;18.20;99.90;;;;;;7369790;19;20667;-76
2023/03/13 13:18:45;;;;;;;7.57;2.72;;;18.30;99.90;;;;;;7373057;19;20109;-76
2023/03/13 13:21:14;;;;;;;9.75;2.55;;;18.50;99.90;;;;;;7372660;19;20485;-75
2023/03/13 13:23:49;;;;;;;8.98;1.80;;;18.90;99.90;;;;;;7373239;19;20018;-76